Time,TemperatureF,DewpointF,PressureIn,WindDirection,WindDirectionDegrees,WindSpeedMPH,WindSpeedGustMPH,Humidity,HourlyPrecipIn,Conditions,Clouds,dailyrainin,SoftwareType,DateUTC
2013-02-19 00:02:00,32.1,25.7,29.92,ESE,113,0.0,0.0,77,0.00,,,0.00,WUHU216HW,2013-02-19 05:02:00,
2013-02-19 00:08:00,32.3,25.9,29.91,ESE,113,0.0,0.0,77,0.00,,,0.00,WUHU216HW,2013-02-19 05:08:00,
2013-02-19 00:14:00,32.3,25.9,29.91,ESE,113,0.0,0.0,77,0.00,,,0.00,WUHU216HW,2013-02-19 05:14:00,
2013-02-19 00:19:00,32.3,25.9,29.91,ESE,113,0.0,0.0,77,0.00,,,0.00,WUHU216HW,2013-02-19 05:19:00,
2013-02-19 00:24:00,32.3,25.9,29.91,ESE,113,0.0,0.0,77,0.00,,,0.00,WUHU216HW,2013-02-19 05:24:00,
2013-02-19 00:29:00,32.1,25.9,29.91,ESE,113,0.0,0.0,77,0.00,,,0.00,WUHU216HW,2013-02-19 05:29:00,
2013-02-19 00:35:00,32.1,25.7,29.91,ESE,113,0.0,0.0,77,0.00,,,0.00,WUHU216HW,2013-02-19 05:35:00,
2013-02-19 00:40:00,32.1,26.1,29.91,ESE,113,0.0,0.0,78,0.00,,,0.00,WUHU216HW,2013-02-19 05:40:00,
2013-02-19 00:46:00,32.1,26.1,29.91,ESE,113,0.0,0.0,78,0.00,,,0.00,WUHU216HW,2013-02-19 05:46:00,
2013-02-19 00:51:00,32.1,26.1,29.91,ESE,113,0.0,0.0,78,0.00,,,0.00,WUHU216HW,2013-02-19 05:51:00,
2013-02-19 00:57:00,32.1,26.1,29.91,ESE,113,0.0,0.0,78,0.00,,,0.00,WUHU216HW,2013-02-19 05:57:00,
2013-02-19 01:02:00,32.1,26.1,29.91,SSE,158,0.0,0.0,78,0.00,,,0.00,WUHU216HW,2013-02-19 06:02:00,
2013-02-19 01:07:00,32.1,26.1,29.91,SSW,203,0.0,0.0,78,0.00,,,0.00,WUHU216HW,2013-02-19 06:07:00,
2013-02-19 01:13:00,32.3,26.2,29.91,ESE,113,0.0,0.0,78,0.00,,,0.00,WUHU216HW,2013-02-19 06:13:00,
2013-02-19 01:18:00,32.3,26.2,29.91,ESE,113,0.0,0.0,78,0.00,,,0.00,WUHU216HW,2013-02-19 06:18:00,
2013-02-19 01:24:00,32.5,26.7,29.91,ESE,113,0.0,0.0,79,0.00,,,0.00,WUHU216HW,2013-02-19 06:24:00,
2013-02-19 01:29:00,32.7,26.9,29.91,NE,45,0.0,0.0,79,0.00,,,0.00,WUHU216HW,2013-02-19 06:29:00,
2013-02-19 01:35:00,33.0,27.2,29.91,ENE,68,0.0,0.0,79,0.00,,,0.00,WUHU216HW,2013-02-19 06:35:00,
2013-02-19 01:41:00,33.8,27.8,29.90,ENE,68,0.0,0.0,79,0.00,,,0.00,WUHU216HW,2013-02-19 06:41:00,
2013-02-19 01:47:00,34.8,28.9,29.90,ESE,113,0.0,0.0,79,0.00,,,0.00,WUHU216HW,2013-02-19 06:47:00,
2013-02-19 01:52:00,35.4,29.1,29.90,NE,45,0.0,0.0,78,0.00,,,0.00,WUHU216HW,2013-02-19 06:52:00,
2013-02-19 01:57:00,36.3,29.7,29.89,NE,45,0.0,0.0,77,0.00,,,0.00,WUHU216HW,2013-02-19 06:57:00,
2013-02-19 02:03:00,37.0,30.4,29.88,ENE,68,0.0,0.0,77,0.00,,,0.00,WUHU216HW,2013-02-19 07:03:00,
2013-02-19 02:09:00,37.9,30.7,29.89,NE,45,0.0,0.0,75,0.00,,,0.00,WUHU216HW,2013-02-19 07:09:00,
2013-02-19 02:15:00,39.3,31.7,29.89,SSE,158,0.0,0.0,74,0.00,,,0.00,WUHU216HW,2013-02-19 07:15:00,
2013-02-19 02:21:00,40.2,31.9,29.88,NE,45,0.0,0.0,72,0.00,,,0.00,WUHU216HW,2013-02-19 07:21:00,
2013-02-19 02:32:00,41.7,32.3,29.87,South,180,0.0,0.0,69,0.00,,,0.00,WUHU216HW,2013-02-19 07:32:00,
2013-02-19 02:37:00,42.0,32.2,29.88,WNW,293,0.0,0.0,68,0.00,,,0.00,WUHU216HW,2013-02-19 07:37:00,
2013-02-19 02:43:00,42.6,32.0,29.87,South,180,0.0,0.0,66,0.00,,,0.00,WUHU216HW,2013-02-19 07:43:00,
2013-02-19 02:54:00,42.9,31.9,29.87,WSW,248,0.0,0.0,65,0.00,,,0.00,WUHU216HW,2013-02-19 07:54:00,
2013-02-19 02:59:00,43.1,31.7,29.87,ESE,113,0.0,6.0,64,0.00,,,0.00,WUHU216HW,2013-02-19 07:59:00,
2013-02-19 03:05:00,43.3,31.9,29.88,SSE,158,0.0,6.0,64,0.00,,,0.00,WUHU216HW,2013-02-19 08:05:00,
2013-02-19 03:10:00,43.5,31.7,29.89,North,0,10.2,10.2,63,0.00,,,0.00,WUHU216HW,2013-02-19 08:10:00,
2013-02-19 03:15:00,44.0,32.2,29.90,SSW,203,0.0,10.2,63,0.00,,,0.00,WUHU216HW,2013-02-19 08:15:00,
2013-02-19 03:20:00,44.2,32.7,29.90,SE,135,5.8,10.2,64,0.00,,,0.00,WUHU216HW,2013-02-19 08:20:00,
2013-02-19 03:25:00,43.7,33.4,29.89,South,180,2.9,7.3,67,0.00,,,0.00,WUHU216HW,2013-02-19 08:25:00,
2013-02-19 03:30:00,43.5,33.2,29.89,SE,135,0.0,7.3,67,0.00,,,0.00,WUHU216HW,2013-02-19 08:30:00,
2013-02-19 03:35:00,43.1,33.7,29.89,West,270,0.0,7.3,69,0.00,,,0.00,WUHU216HW,2013-02-19 08:35:00,
2013-02-19 03:41:00,42.6,34.2,29.89,ENE,68,0.0,3.3,72,0.02,,,0.02,WUHU216HW,2013-02-19 08:41:00,
2013-02-19 03:46:00,42.4,34.4,29.88,ENE,68,0.0,3.3,73,0.02,,,0.02,WUHU216HW,2013-02-19 08:46:00,
2013-02-19 03:51:00,42.0,34.3,29.88,South,180,0.0,0.0,74,0.02,,,0.02,WUHU216HW,2013-02-19 08:51:00,
2013-02-19 03:56:00,41.9,34.5,29.88,East,90,0.0,0.0,75,0.02,,,0.02,WUHU216HW,2013-02-19 08:56:00,
2013-02-19 04:01:00,41.5,34.1,29.88,SE,135,0.0,0.0,76,0.02,,,0.02,WUHU216HW,2013-02-19 09:01:00,
2013-02-19 04:06:00,41.3,34.3,29.87,NE,45,0.0,0.0,76,0.02,,,0.02,WUHU216HW,2013-02-19 09:06:00,
2013-02-19 04:11:00,41.1,34.4,29.87,ENE,68,0.0,0.0,77,0.04,,,0.04,WUHU216HW,2013-02-19 09:11:00,
2013-02-19 04:17:00,40.8,34.4,29.87,ESE,113,0.0,0.0,78,0.04,,,0.04,WUHU216HW,2013-02-19 09:17:00,
2013-02-19 04:22:00,40.8,34.4,29.87,NE,45,0.0,0.0,78,0.04,,,0.04,WUHU216HW,2013-02-19 09:22:00,
2013-02-19 04:27:00,40.6,34.5,29.86,NE,45,0.0,0.0,79,0.06,,,0.06,WUHU216HW,2013-02-19 09:27:00,
2013-02-19 04:32:00,40.6,34.5,29.87,NE,45,0.0,0.0,79,0.06,,,0.06,WUHU216HW,2013-02-19 09:32:00,
2013-02-19 04:38:00,40.2,34.2,29.86,NNE,23,0.0,0.0,79,0.06,,,0.06,WUHU216HW,2013-02-19 09:38:00,
2013-02-19 04:44:00,39.9,33.9,29.85,NNE,23,0.0,0.0,79,0.06,,,0.08,WUHU216HW,2013-02-19 09:44:00,
2013-02-19 04:49:00,39.5,33.6,29.85,NNE,23,0.0,0.0,79,0.06,,,0.08,WUHU216HW,2013-02-19 09:49:00,
2013-02-19 05:00:00,39.3,34.0,29.84,NE,45,0.0,0.0,81,0.06,,,0.08,WUHU216HW,2013-02-19 10:00:00,
2013-02-19 05:05:00,39.3,34.3,29.83,ESE,113,0.0,0.0,82,0.06,,,0.08,WUHU216HW,2013-02-19 10:05:00,
2013-02-19 05:11:00,39.5,34.5,29.83,ESE,113,0.0,0.0,82,0.04,,,0.08,WUHU216HW,2013-02-19 10:11:00,
2013-02-19 05:16:00,39.7,34.9,29.83,ENE,68,0.0,0.0,83,0.04,,,0.08,WUHU216HW,2013-02-19 10:16:00,
2013-02-19 05:21:00,39.7,34.9,29.82,ENE,68,0.0,0.0,83,0.04,,,0.08,WUHU216HW,2013-02-19 10:21:00,
2013-02-19 05:26:00,39.7,34.9,29.82,SE,135,0.0,0.0,83,0.02,,,0.08,WUHU216HW,2013-02-19 10:26:00,
2013-02-19 05:32:00,39.7,34.9,29.82,NE,45,0.0,0.0,83,0.02,,,0.08,WUHU216HW,2013-02-19 10:32:00,
2013-02-19 05:38:00,39.9,35.1,29.82,ENE,68,0.0,0.0,83,0.02,,,0.08,WUHU216HW,2013-02-19 10:38:00,
2013-02-19 05:43:00,39.9,35.1,29.82,SE,135,0.0,0.0,83,0.00,,,0.08,WUHU216HW,2013-02-19 10:43:00,
2013-02-19 05:49:00,40.1,35.3,29.82,ENE,68,0.0,0.0,83,0.00,,,0.08,WUHU216HW,2013-02-19 10:49:00,
2013-02-19 06:00:00,40.4,35.6,29.82,SSE,158,0.0,2.2,83,0.00,,,0.08,WUHU216HW,2013-02-19 11:00:00,
2013-02-19 06:05:00,40.6,35.9,29.81,East,90,0.0,0.0,83,0.00,,,0.08,WUHU216HW,2013-02-19 11:05:00,
2013-02-19 06:11:00,40.8,35.9,29.81,SE,135,2.9,3.3,83,0.00,,,0.08,WUHU216HW,2013-02-19 11:11:00,
2013-02-19 06:16:00,41.3,36.2,29.81,SE,135,7.8,7.8,82,0.00,,,0.08,WUHU216HW,2013-02-19 11:16:00,
2013-02-19 06:22:00,41.5,36.3,29.80,East,90,6.9,7.8,82,0.00,,,0.08,WUHU216HW,2013-02-19 11:22:00,
2013-02-19 06:28:00,41.7,36.2,29.80,West,270,0.0,6.9,81,0.00,,,0.08,WUHU216HW,2013-02-19 11:28:00,
2013-02-19 06:34:00,41.9,36.4,29.80,SE,135,5.8,6.2,81,0.00,,,0.08,WUHU216HW,2013-02-19 11:34:00,
2013-02-19 06:40:00,41.9,36.4,29.79,ENE,68,0.0,5.8,81,0.00,,,0.08,WUHU216HW,2013-02-19 11:40:00,
2013-02-19 06:45:00,41.9,36.4,29.79,East,90,0.0,6.2,81,0.02,,,0.10,WUHU216HW,2013-02-19 11:45:00,
2013-02-19 06:55:00,41.7,36.5,29.79,NE,45,0.0,12.5,82,0.02,,,0.10,WUHU216HW,2013-02-19 11:55:00,
2013-02-19 07:00:00,41.5,36.3,29.79,East,90,3.5,3.8,82,0.02,,,0.10,WUHU216HW,2013-02-19 12:00:00,
2013-02-19 07:06:00,41.5,36.3,29.79,NE,45,6.9,10.9,82,0.02,,,0.10,WUHU216HW,2013-02-19 12:06:00,
2013-02-19 07:12:00,41.1,36.3,29.79,ENE,68,0.8,10.9,83,0.02,,,0.10,WUHU216HW,2013-02-19 12:12:00,
2013-02-19 07:18:00,41.1,36.3,29.78,ENE,68,0.6,4.9,83,0.02,,,0.10,WUHU216HW,2013-02-19 12:18:00,
2013-02-19 07:23:00,41.1,36.3,29.78,ENE,68,2.4,5.3,83,0.02,,,0.10,WUHU216HW,2013-02-19 12:23:00,
2013-02-19 07:28:00,41.0,36.1,29.79,SE,135,0.0,5.3,83,0.02,,,0.10,WUHU216HW,2013-02-19 12:28:00,
2013-02-19 07:34:00,40.8,35.9,29.78,SSE,158,9.8,9.8,83,0.02,,,0.10,WUHU216HW,2013-02-19 12:34:00,
2013-02-19 07:39:00,41.0,36.4,29.79,East,90,2.2,9.8,84,0.02,,,0.10,WUHU216HW,2013-02-19 12:39:00,
2013-02-19 07:45:00,41.0,36.4,29.79,South,180,0.0,9.8,84,0.00,,,0.10,WUHU216HW,2013-02-19 12:45:00,
2013-02-19 07:51:00,41.0,36.4,29.79,ESE,113,4.4,4.4,84,0.00,,,0.10,WUHU216HW,2013-02-19 12:51:00,
2013-02-19 08:02:00,41.0,36.4,29.78,SE,135,5.3,6.9,84,0.00,,,0.10,WUHU216HW,2013-02-19 13:02:00,
2013-02-19 08:07:00,41.1,36.9,29.78,North,0,0.0,6.0,85,0.00,,,0.10,WUHU216HW,2013-02-19 13:07:00,
2013-02-19 08:13:00,41.1,36.9,29.78,SE,135,3.8,6.0,85,0.00,,,0.10,WUHU216HW,2013-02-19 13:13:00,
2013-02-19 08:18:00,41.3,36.9,29.77,SE,135,7.3,7.3,85,0.00,,,0.10,WUHU216HW,2013-02-19 13:18:00,
2013-02-19 08:23:00,41.3,37.1,29.78,ESE,113,3.1,7.3,85,0.00,,,0.10,WUHU216HW,2013-02-19 13:23:00,
2013-02-19 08:29:00,41.5,37.3,29.77,SSE,158,1.5,7.3,85,0.00,,,0.10,WUHU216HW,2013-02-19 13:29:00,
2013-02-19 08:35:00,41.7,37.4,29.77,ESE,113,3.8,7.1,85,0.00,,,0.10,WUHU216HW,2013-02-19 13:35:00,
2013-02-19 08:40:00,41.9,37.6,29.77,SW,225,2.6,4.6,85,0.00,,,0.10,WUHU216HW,2013-02-19 13:40:00,
2013-02-19 08:46:00,42.0,37.8,29.77,South,180,9.3,9.3,84,0.00,,,0.10,WUHU216HW,2013-02-19 13:46:00,
2013-02-19 08:52:00,42.2,37.7,29.77,NNE,23,0.0,9.3,84,0.00,,,0.10,WUHU216HW,2013-02-19 13:52:00,
2013-02-19 08:58:00,42.4,37.9,29.77,ESE,113,5.1,5.1,84,0.00,,,0.10,WUHU216HW,2013-02-19 13:58:00,
2013-02-19 09:03:00,42.4,37.9,29.77,SE,135,3.3,5.1,84,0.00,,,0.10,WUHU216HW,2013-02-19 14:03:00,
2013-02-19 09:08:00,42.6,38.0,29.77,SE,135,3.3,5.1,84,0.00,,,0.10,WUHU216HW,2013-02-19 14:08:00,
2013-02-19 09:14:00,42.6,38.0,29.77,SSW,203,2.4,5.5,84,0.00,,,0.10,WUHU216HW,2013-02-19 14:14:00,
2013-02-19 09:24:00,42.6,37.7,29.76,NNE,23,0.0,4.6,83,0.00,,,0.10,WUHU216HW,2013-02-19 14:24:00,
2013-02-19 09:29:00,42.6,37.7,29.77,SE,135,6.2,6.2,83,0.00,,,0.10,WUHU216HW,2013-02-19 14:29:00,
2013-02-19 09:35:00,42.6,37.9,29.77,North,0,1.1,6.2,83,0.00,,,0.10,WUHU216HW,2013-02-19 14:35:00,
2013-02-19 09:40:00,42.6,37.7,29.76,NNW,338,0.0,6.2,83,0.00,,,0.10,WUHU216HW,2013-02-19 14:40:00,
2013-02-19 09:45:00,42.6,37.7,29.76,WSW,248,7.3,7.3,83,0.00,,,0.10,WUHU216HW,2013-02-19 14:45:00,
2013-02-19 09:51:00,42.6,37.7,29.76,East,90,1.3,7.3,83,0.00,,,0.10,WUHU216HW,2013-02-19 14:51:00,
2013-02-19 09:56:00,42.6,37.7,29.76,WSW,248,0.4,5.1,83,0.00,,,0.10,WUHU216HW,2013-02-19 14:56:00,
2013-02-19 10:01:00,42.6,37.7,29.76,SSE,158,5.1,5.1,83,0.00,,,0.10,WUHU216HW,2013-02-19 15:01:00,
2013-02-19 10:06:00,42.6,38.0,29.76,SSE,158,2.9,5.1,84,0.00,,,0.10,WUHU216HW,2013-02-19 15:06:00,
2013-02-19 10:12:00,42.6,38.0,29.76,ESE,113,0.0,5.1,84,0.00,,,0.10,WUHU216HW,2013-02-19 15:12:00,
2013-02-19 10:17:00,42.6,38.0,29.75,North,0,1.7,2.6,84,0.00,,,0.10,WUHU216HW,2013-02-19 15:17:00,
2013-02-19 10:23:00,42.6,38.0,29.75,South,180,0.0,2.6,84,0.00,,,0.10,WUHU216HW,2013-02-19 15:23:00,
2013-02-19 10:29:00,42.6,38.0,29.75,ESE,113,0.6,3.5,84,0.00,,,0.10,WUHU216HW,2013-02-19 15:29:00,
2013-02-19 10:34:00,42.8,38.2,29.75,SSE,158,0.0,3.5,84,0.00,,,0.10,WUHU216HW,2013-02-19 15:34:00,
2013-02-19 10:40:00,42.9,38.4,29.75,ENE,68,0.0,3.3,84,0.00,,,0.10,WUHU216HW,2013-02-19 15:40:00,
2013-02-19 10:46:00,43.1,38.6,29.75,SSE,158,0.0,6.7,84,0.00,,,0.10,WUHU216HW,2013-02-19 15:46:00,
2013-02-19 10:52:00,43.5,39.6,29.75,East,90,6.4,6.7,85,0.00,,,0.10,WUHU216HW,2013-02-19 15:52:00,
2013-02-19 10:58:00,44.2,39.7,29.74,ESE,113,1.3,6.4,84,0.00,,,0.10,WUHU216HW,2013-02-19 15:58:00,
2013-02-19 11:04:00,44.4,39.5,29.74,SE,135,4.9,4.9,83,0.00,,,0.10,WUHU216HW,2013-02-19 16:04:00,
2013-02-19 11:10:00,44.7,39.9,29.74,SW,225,0.4,4.9,83,0.00,,,0.10,WUHU216HW,2013-02-19 16:10:00,
2013-02-19 11:15:00,44.9,39.8,29.74,SSW,203,9.6,9.6,82,0.00,,,0.10,WUHU216HW,2013-02-19 16:15:00,
2013-02-19 11:21:00,45.1,39.9,29.74,ESE,113,3.3,9.6,82,0.00,,,0.10,WUHU216HW,2013-02-19 16:21:00,
2013-02-19 11:26:00,45.5,40.3,29.74,SSE,158,1.7,5.3,82,0.00,,,0.10,WUHU216HW,2013-02-19 16:26:00,
2013-02-19 11:31:00,45.6,40.2,29.74,SSW,203,0.6,8.0,81,0.00,,,0.10,WUHU216HW,2013-02-19 16:31:00,
2013-02-19 11:36:00,46.0,40.5,29.74,SE,135,3.5,8.0,81,0.00,,,0.10,WUHU216HW,2013-02-19 16:36:00,
2013-02-19 11:42:00,46.2,40.7,29.73,North,0,0.0,7.6,81,0.00,,,0.10,WUHU216HW,2013-02-19 16:42:00,
2013-02-19 11:48:00,46.2,40.4,29.73,SE,135,0.0,12.5,80,0.00,,,0.10,WUHU216HW,2013-02-19 16:48:00,
2013-02-19 11:54:00,46.0,40.2,29.73,SSE,158,1.1,12.5,80,0.00,,,0.10,WUHU216HW,2013-02-19 16:54:00,
2013-02-19 11:59:00,46.0,40.2,29.72,SE,135,0.0,4.4,80,0.00,,,0.10,WUHU216HW,2013-02-19 16:59:00,
2013-02-19 12:04:00,46.2,40.4,29.73,SE,135,0.0,4.4,80,0.00,,,0.10,WUHU216HW,2013-02-19 17:04:00,
2013-02-19 12:10:00,45.8,39.7,29.73,SSW,203,0.0,8.0,79,0.00,,,0.10,WUHU216HW,2013-02-19 17:10:00,
2013-02-19 12:15:00,45.5,39.3,29.74,NNW,338,3.5,8.9,79,0.00,,,0.10,WUHU216HW,2013-02-19 17:15:00,
2013-02-19 12:20:00,43.8,37.7,29.74,NNW,338,9.6,9.6,79,0.00,,,0.10,WUHU216HW,2013-02-19 17:20:00,
2013-02-19 12:25:00,42.6,36.8,29.75,NW,315,16.3,16.3,80,0.02,,,0.12,WUHU216HW,2013-02-19 17:25:00,
2013-02-19 12:31:00,41.3,35.9,29.75,NW,315,10.2,16.3,81,0.02,,,0.12,WUHU216HW,2013-02-19 17:31:00,
2013-02-19 12:37:00,40.8,35.6,29.75,SW,225,8.9,13.8,82,0.02,,,0.12,WUHU216HW,2013-02-19 17:37:00,
2013-02-19 12:43:00,40.8,35.9,29.75,WNW,293,6.7,9.6,83,0.02,,,0.12,WUHU216HW,2013-02-19 17:43:00,
2013-02-19 12:53:00,40.8,35.6,29.74,WSW,248,3.8,9.3,82,0.02,,,0.12,WUHU216HW,2013-02-19 17:53:00,
2013-02-19 12:58:00,40.8,35.6,29.75,WNW,293,5.1,7.8,82,0.04,,,0.15,WUHU216HW,2013-02-19 17:58:00,
2013-02-19 13:04:00,41.0,35.8,29.75,WSW,248,2.0,7.8,82,0.04,,,0.15,WUHU216HW,2013-02-19 18:04:00,
2013-02-19 13:09:00,41.9,36.7,29.75,WNW,293,14.0,14.0,82,0.04,,,0.15,WUHU216HW,2013-02-19 18:09:00,
2013-02-19 13:15:00,42.0,36.6,29.75,NNW,338,6.4,14.0,81,0.04,,,0.15,WUHU216HW,2013-02-19 18:15:00,
2013-02-19 13:20:00,42.0,36.6,29.75,WSW,248,8.2,14.0,81,0.04,,,0.15,WUHU216HW,2013-02-19 18:20:00,
2013-02-19 13:30:00,41.9,36.4,29.75,South,180,5.1,8.2,81,0.02,,,0.15,WUHU216HW,2013-02-19 18:30:00,
2013-02-19 13:35:00,41.7,35.9,29.76,SSW,203,4.2,5.8,80,0.02,,,0.15,WUHU216HW,2013-02-19 18:35:00,
2013-02-19 13:45:00,41.7,35.6,29.75,West,270,4.9,12.9,79,0.02,,,0.15,WUHU216HW,2013-02-19 18:45:00,
2013-02-19 13:51:00,41.7,35.3,29.75,SW,225,4.4,7.1,78,0.02,,,0.15,WUHU216HW,2013-02-19 18:51:00,
2013-02-19 13:56:00,41.3,35.1,29.76,WSW,248,2.9,7.1,78,0.02,,,0.15,WUHU216HW,2013-02-19 18:56:00,
2013-02-19 14:02:00,41.1,34.4,29.76,SSW,203,5.8,8.2,77,0.00,,,0.15,WUHU216HW,2013-02-19 19:02:00,
2013-02-19 14:07:00,41.3,34.6,29.76,West,270,5.8,9.1,77,0.00,,,0.15,WUHU216HW,2013-02-19 19:07:00,
2013-02-19 14:12:00,41.3,34.3,29.76,West,270,0.0,9.1,76,0.00,,,0.15,WUHU216HW,2013-02-19 19:12:00,
2013-02-19 14:18:00,41.5,34.4,29.77,WSW,248,6.0,7.6,76,0.00,,,0.15,WUHU216HW,2013-02-19 19:18:00,
2013-02-19 14:24:00,41.3,33.9,29.77,SSW,203,11.8,11.8,75,0.00,,,0.15,WUHU216HW,2013-02-19 19:24:00,
2013-02-19 14:30:00,41.0,33.2,29.78,West,270,4.2,11.8,74,0.00,,,0.15,WUHU216HW,2013-02-19 19:30:00,
2013-02-19 14:35:00,40.2,32.5,29.78,NW,315,5.5,11.8,74,0.00,,,0.15,WUHU216HW,2013-02-19 19:35:00,
2013-02-19 14:40:00,39.7,32.0,29.79,NNE,23,0.0,8.9,74,0.00,,,0.15,WUHU216HW,2013-02-19 19:40:00,
2013-02-19 14:46:00,39.0,31.7,29.79,WNW,293,4.9,11.1,75,0.00,,,0.15,WUHU216HW,2013-02-19 19:46:00,
2013-02-19 14:52:00,39.2,31.9,29.79,WSW,248,4.2,11.1,75,0.00,,,0.15,WUHU216HW,2013-02-19 19:52:00,
2013-02-19 14:57:00,39.5,31.9,29.79,WNW,293,12.5,12.5,74,0.00,,,0.15,WUHU216HW,2013-02-19 19:57:00,
2013-02-19 15:03:00,39.7,31.7,29.79,SW,225,6.7,12.5,73,0.00,,,0.15,WUHU216HW,2013-02-19 20:03:00,
2013-02-19 15:08:00,39.5,31.5,29.79,NNW,338,9.6,12.5,73,0.00,,,0.15,WUHU216HW,2013-02-19 20:08:00,
2013-02-19 15:13:00,39.3,31.3,29.80,SW,225,7.1,9.6,73,0.00,,,0.15,WUHU216HW,2013-02-19 20:13:00,
2013-02-19 15:18:00,39.3,31.3,29.80,WNW,293,9.8,9.8,73,0.00,,,0.15,WUHU216HW,2013-02-19 20:18:00,
2013-02-19 15:24:00,39.3,31.0,29.80,West,270,7.8,9.8,72,0.00,,,0.15,WUHU216HW,2013-02-19 20:24:00,
2013-02-19 15:29:00,39.3,31.0,29.80,SW,225,3.5,9.8,72,0.00,,,0.15,WUHU216HW,2013-02-19 20:29:00,
2013-02-19 15:35:00,39.0,30.7,29.81,NNE,23,5.5,7.8,72,0.00,,,0.15,WUHU216HW,2013-02-19 20:35:00,
2013-02-19 15:40:00,39.0,30.3,29.81,SW,225,0.0,8.0,71,0.00,,,0.15,WUHU216HW,2013-02-19 20:40:00,
2013-02-19 15:46:00,39.0,30.3,29.81,West,270,6.7,8.0,71,0.00,,,0.15,WUHU216HW,2013-02-19 20:46:00,
2013-02-19 15:51:00,38.8,29.8,29.81,WSW,248,14.7,14.7,70,0.00,,,0.15,WUHU216HW,2013-02-19 20:51:00,
2013-02-19 15:57:00,38.3,29.0,29.82,WNW,293,7.3,14.7,69,0.00,,,0.15,WUHU216HW,2013-02-19 20:57:00,
2013-02-19 16:02:00,37.9,28.6,29.82,West,270,0.0,7.3,69,0.00,,,0.15,WUHU216HW,2013-02-19 21:02:00,
2013-02-19 16:08:00,37.5,28.3,29.82,WNW,293,4.9,13.1,69,0.00,,,0.15,WUHU216HW,2013-02-19 21:08:00,
2013-02-19 16:13:00,37.4,28.4,29.82,West,270,6.2,13.1,70,0.00,,,0.15,WUHU216HW,2013-02-19 21:13:00,
2013-02-19 16:18:00,37.2,28.4,29.82,WNW,293,10.5,10.5,70,0.00,,,0.15,WUHU216HW,2013-02-19 21:18:00,
2013-02-19 16:24:00,37.0,28.2,29.83,WSW,248,4.4,10.5,70,0.00,,,0.15,WUHU216HW,2013-02-19 21:24:00,
2013-02-19 16:29:00,36.8,28.0,29.83,SW,225,5.3,5.8,70,0.00,,,0.15,WUHU216HW,2013-02-19 21:29:00,
2013-02-19 16:35:00,36.5,27.6,29.84,WSW,248,10.5,10.5,70,0.00,,,0.15,WUHU216HW,2013-02-19 21:35:00,
2013-02-19 16:41:00,36.3,27.5,29.84,WSW,248,3.3,10.5,70,0.00,,,0.15,WUHU216HW,2013-02-19 21:41:00,
2013-02-19 16:46:00,36.1,27.6,29.84,WSW,248,4.0,10.5,71,0.00,,,0.15,WUHU216HW,2013-02-19 21:46:00,
2013-02-19 16:51:00,35.9,27.4,29.84,WNW,293,7.8,7.8,71,0.00,,,0.15,WUHU216HW,2013-02-19 21:51:00,
2013-02-19 16:57:00,35.4,27.2,29.85,West,270,2.9,7.8,72,0.00,,,0.15,WUHU216HW,2013-02-19 21:57:00,
2013-02-19 17:03:00,35.0,27.2,29.85,NNW,338,2.9,6.7,73,0.00,,,0.15,WUHU216HW,2013-02-19 22:03:00,
2013-02-19 17:09:00,34.7,27.1,29.85,West,270,3.3,6.7,74,0.00,,,0.15,WUHU216HW,2013-02-19 22:09:00,
2013-02-19 17:15:00,34.5,26.9,29.85,WNW,293,2.9,4.2,74,0.00,,,0.15,WUHU216HW,2013-02-19 22:15:00,
2013-02-19 17:20:00,34.3,27.1,29.86,West,270,1.7,5.8,75,0.00,,,0.15,WUHU216HW,2013-02-19 22:20:00,
2013-02-19 17:25:00,34.3,27.1,29.86,WNW,293,5.1,5.8,75,0.00,,,0.15,WUHU216HW,2013-02-19 22:25:00,
2013-02-19 17:31:00,34.1,26.9,29.87,WNW,293,0.0,5.1,75,0.00,,,0.15,WUHU216HW,2013-02-19 22:31:00,
2013-02-19 17:36:00,34.1,26.9,29.87,West,270,6.4,6.4,75,0.00,,,0.15,WUHU216HW,2013-02-19 22:36:00,
2013-02-19 17:41:00,33.9,26.7,29.87,WSW,248,6.7,6.9,75,0.00,,,0.15,WUHU216HW,2013-02-19 22:41:00,
2013-02-19 17:47:00,33.8,26.6,29.88,SW,225,0.0,6.9,75,0.00,,,0.15,WUHU216HW,2013-02-19 22:47:00,
2013-02-19 17:52:00,33.6,26.4,29.88,WNW,293,9.3,9.3,75,0.00,,,0.15,WUHU216HW,2013-02-19 22:52:00,
2013-02-19 17:57:00,33.6,26.4,29.89,SSW,203,7.1,9.3,75,0.00,,,0.15,WUHU216HW,2013-02-19 22:57:00,
2013-02-19 18:02:00,33.6,26.7,29.90,WSW,248,7.8,9.6,76,0.00,,,0.15,WUHU216HW,2013-02-19 23:02:00,
2013-02-19 18:07:00,33.4,26.6,29.90,SW,225,5.5,9.6,76,0.00,,,0.15,WUHU216HW,2013-02-19 23:07:00,
2013-02-19 18:13:00,33.2,26.2,29.91,SSW,203,6.7,7.6,76,0.00,,,0.15,WUHU216HW,2013-02-19 23:13:00,
2013-02-19 18:19:00,32.9,26.1,29.91,West,270,7.8,7.8,76,0.00,,,0.15,WUHU216HW,2013-02-19 23:19:00,
2013-02-19 18:24:00,32.7,25.9,29.92,ENE,68,0.0,7.8,76,0.00,,,0.15,WUHU216HW,2013-02-19 23:24:00,
2013-02-19 18:29:00,32.7,25.6,29.92,West,270,8.0,8.0,75,0.00,,,0.15,WUHU216HW,2013-02-19 23:29:00,
2013-02-19 18:34:00,32.5,25.4,29.92,NW,315,2.0,8.0,75,0.00,,,0.15,WUHU216HW,2013-02-19 23:34:00,
2013-02-19 18:39:00,32.1,25.1,29.92,WNW,293,5.8,8.0,75,0.00,,,0.15,WUHU216HW,2013-02-19 23:39:00,
2013-02-19 18:44:00,32.1,25.1,29.92,West,270,0.0,5.8,75,0.00,,,0.15,WUHU216HW,2013-02-19 23:44:00,
2013-02-19 18:49:00,31.8,24.8,29.92,WSW,248,2.4,5.8,75,0.00,,,0.15,WUHU216HW,2013-02-19 23:49:00,
2013-02-19 18:55:00,31.8,24.8,29.92,SW,225,0.0,2.9,75,0.00,,,0.15,WUHU216HW,2013-02-19 23:55:00,
2013-02-19 19:00:00,31.6,24.6,29.92,West,270,1.1,2.9,75,0.00,,,0.15,WUHU216HW,2013-02-20 00:00:00,
2013-02-19 19:05:00,31.6,24.6,29.93,West,270,0.0,3.3,75,0.00,,,0.15,WUHU216HW,2013-02-20 00:05:00,
2013-02-19 19:10:00,31.6,24.2,29.93,WNW,293,0.0,9.1,74,0.00,,,0.15,WUHU216HW,2013-02-20 00:10:00,
2013-02-19 19:16:00,31.2,23.9,29.93,West,270,6.0,9.1,74,0.00,,,0.15,WUHU216HW,2013-02-20 00:16:00,
2013-02-19 19:21:00,31.2,23.6,29.93,WNW,293,0.0,7.8,73,0.00,,,0.15,WUHU216HW,2013-02-20 00:21:00,
2013-02-19 19:26:00,31.2,23.6,29.94,WNW,293,6.9,14.0,73,0.00,,,0.15,WUHU216HW,2013-02-20 00:26:00,
2013-02-19 19:32:00,31.2,23.6,29.94,NNW,338,2.4,14.0,73,0.00,,,0.15,WUHU216HW,2013-02-20 00:32:00,
2013-02-19 19:38:00,31.1,23.1,29.94,WNW,293,6.7,11.8,72,0.00,,,0.15,WUHU216HW,2013-02-20 00:38:00,
2013-02-19 19:44:00,30.9,22.9,29.94,WNW,293,0.0,11.8,72,0.00,,,0.15,WUHU216HW,2013-02-20 00:44:00,
2013-02-19 19:49:00,30.9,22.9,29.94,NW,315,7.8,7.8,72,0.00,,,0.15,WUHU216HW,2013-02-20 00:49:00,
2013-02-19 19:54:00,30.9,22.9,29.94,West,270,8.7,14.0,72,0.00,,,0.15,WUHU216HW,2013-02-20 00:54:00,
2013-02-19 20:00:00,30.7,22.7,29.94,SSE,158,8.9,14.0,72,0.00,,,0.15,WUHU216HW,2013-02-20 01:00:00,
2013-02-19 20:05:00,30.5,22.8,29.94,SW,225,6.2,8.9,73,0.00,,,0.15,WUHU216HW,2013-02-20 01:05:00,
2013-02-19 20:11:00,30.3,22.3,29.94,WNW,293,6.4,14.5,72,0.00,,,0.15,WUHU216HW,2013-02-20 01:11:00,
2013-02-19 20:17:00,30.2,22.5,29.94,WSW,248,5.1,14.5,73,0.00,,,0.15,WUHU216HW,2013-02-20 01:17:00,
2013-02-19 20:22:00,30.0,22.3,29.95,NNW,338,7.3,7.3,73,0.00,,,0.15,WUHU216HW,2013-02-20 01:22:00,
2013-02-19 20:28:00,30.0,22.3,29.95,WNW,293,0.0,7.3,73,0.00,,,0.15,WUHU216HW,2013-02-20 01:28:00,
2013-02-19 20:33:00,29.6,22.3,29.95,West,270,6.7,7.3,74,0.00,,,0.15,WUHU216HW,2013-02-20 01:33:00,
2013-02-19 20:38:00,29.3,22.3,29.96,WNW,293,0.0,13.6,75,0.00,,,0.15,WUHU216HW,2013-02-20 01:38:00,
2013-02-19 20:44:00,29.1,22.4,29.96,SW,225,4.2,13.6,76,0.00,,,0.15,WUHU216HW,2013-02-20 01:44:00,
2013-02-19 20:49:00,29.1,22.4,29.96,West,270,0.0,5.5,76,0.00,,,0.15,WUHU216HW,2013-02-20 01:49:00,
2013-02-19 20:54:00,28.7,22.1,29.96,WNW,293,5.8,6.0,76,0.00,,,0.15,WUHU216HW,2013-02-20 01:54:00,
2013-02-19 21:00:00,28.7,21.8,29.96,WSW,248,2.6,6.0,75,0.00,,,0.15,WUHU216HW,2013-02-20 02:00:00,
2013-02-19 21:05:00,28.5,21.3,29.97,West,270,0.0,7.6,74,0.00,,,0.15,WUHU216HW,2013-02-20 02:05:00,
2013-02-19 21:11:00,28.5,21.0,29.97,West,270,5.3,7.6,73,0.00,,,0.15,WUHU216HW,2013-02-20 02:11:00,
2013-02-19 21:16:00,28.5,20.7,29.97,WNW,293,7.1,7.1,72,0.00,,,0.15,WUHU216HW,2013-02-20 02:16:00,
2013-02-19 21:22:00,28.4,20.5,29.97,West,270,0.0,7.1,72,0.00,,,0.15,WUHU216HW,2013-02-20 02:22:00,
2013-02-19 21:27:00,28.2,20.3,29.97,WNW,293,0.0,5.8,72,0.00,,,0.15,WUHU216HW,2013-02-20 02:27:00,
2013-02-19 21:33:00,28.2,20.0,29.97,SW,225,6.9,8.2,71,0.00,,,0.15,WUHU216HW,2013-02-20 02:33:00,
2013-02-19 21:38:00,28.2,20.0,29.97,SW,225,8.5,8.5,71,0.00,,,0.15,WUHU216HW,2013-02-20 02:38:00,
2013-02-19 21:44:00,28.2,20.0,29.96,WSW,248,4.2,8.5,71,0.00,,,0.15,WUHU216HW,2013-02-20 02:44:00,
2013-02-19 21:49:00,28.2,20.0,29.97,West,270,0.0,4.2,71,0.00,,,0.15,WUHU216HW,2013-02-20 02:49:00,
2013-02-19 21:55:00,28.2,20.0,29.97,South,180,0.0,4.9,71,0.00,,,0.15,WUHU216HW,2013-02-20 02:55:00,
2013-02-19 22:01:00,28.0,19.8,29.97,NW,315,6.2,6.2,71,0.00,,,0.15,WUHU216HW,2013-02-20 03:01:00,
2013-02-19 22:06:00,28.0,19.8,29.97,WSW,248,1.7,6.2,71,0.00,,,0.15,WUHU216HW,2013-02-20 03:06:00,
2013-02-19 22:11:00,28.0,19.8,29.97,West,270,7.1,7.1,71,0.00,,,0.15,WUHU216HW,2013-02-20 03:11:00,
2013-02-19 22:17:00,28.0,19.8,29.97,West,270,3.8,21.9,71,0.00,,,0.15,WUHU216HW,2013-02-20 03:17:00,
2013-02-19 22:23:00,28.0,19.5,29.97,NNW,338,0.0,6.2,70,0.00,,,0.15,WUHU216HW,2013-02-20 03:23:00,
2013-02-19 22:28:00,28.0,19.5,29.97,WSW,248,3.3,6.9,70,0.00,,,0.15,WUHU216HW,2013-02-20 03:28:00,
2013-02-19 22:33:00,28.0,19.5,29.97,East,90,2.0,10.5,70,0.00,,,0.15,WUHU216HW,2013-02-20 03:33:00,
2013-02-19 22:39:00,28.0,19.2,29.97,West,270,10.0,10.5,69,0.00,,,0.15,WUHU216HW,2013-02-20 03:39:00,
2013-02-19 22:44:00,28.0,18.8,29.97,SW,225,9.6,11.8,68,0.00,,,0.15,WUHU216HW,2013-02-20 03:44:00,
2013-02-19 22:50:00,28.0,18.8,29.97,WNW,293,6.4,11.8,68,0.00,,,0.15,WUHU216HW,2013-02-20 03:50:00,
2013-02-19 22:56:00,27.8,18.6,29.97,SSW,203,7.1,8.0,68,0.00,,,0.15,WUHU216HW,2013-02-20 03:56:00,
2013-02-19 23:02:00,27.6,18.5,29.97,West,270,0.0,7.1,68,0.00,,,0.15,WUHU216HW,2013-02-20 04:02:00,
2013-02-19 23:07:00,27.6,18.5,29.97,NW,315,7.3,7.6,68,0.00,,,0.15,WUHU216HW,2013-02-20 04:07:00,
2013-02-19 23:12:00,27.6,18.5,29.98,West,270,4.9,7.6,68,0.00,,,0.15,WUHU216HW,2013-02-20 04:12:00,
2013-02-19 23:17:00,27.5,18.6,29.98,West,270,10.9,10.9,69,0.00,,,0.15,WUHU216HW,2013-02-20 04:17:00,
2013-02-19 23:22:00,27.3,18.5,29.97,SSW,203,0.0,10.9,69,0.00,,,0.15,WUHU216HW,2013-02-20 04:22:00,
2013-02-19 23:27:00,27.3,18.5,29.98,WSW,248,0.0,10.9,69,0.00,,,0.15,WUHU216HW,2013-02-20 04:27:00,
2013-02-19 23:33:00,27.1,18.3,29.98,WNW,293,0.0,10.0,69,0.00,,,0.15,WUHU216HW,2013-02-20 04:33:00,
2013-02-19 23:38:00,27.1,18.3,29.98,West,270,8.0,10.0,69,0.00,,,0.15,WUHU216HW,2013-02-20 04:38:00,
2013-02-19 23:43:00,27.1,18.3,29.98,SW,225,6.4,8.0,69,0.00,,,0.15,WUHU216HW,2013-02-20 04:43:00,
2013-02-19 23:49:00,27.1,18.3,29.98,West,270,0.0,6.4,69,0.00,,,0.15,WUHU216HW,2013-02-20 04:49:00,
2013-02-19 23:59:00,26.9,18.1,29.98,SW,225,12.5,12.5,69,0.00,,,0.15,WUHU216HW,2013-02-20 04:59:00,